createdAt,value
2023-03-29T00:00:09.038Z,101975.31
2023-03-29T00:02:39.116Z,101969.03
2023-03-29T00:05:06.788Z,101959.16
2023-03-29T00:07:33.923Z,101962.56
2023-03-29T00:10:04.500Z,101956.25
2023-03-29T00:12:32.023Z,101957.94
2023-03-29T00:14:59.036Z,101954.34
2023-03-29T00:17:27.235Z,101962.34
2023-03-29T00:19:54.316Z,101957.00
2023-03-29T00:22:22.035Z,101942.81
2023-03-29T00:24:49.309Z,101938.38
2023-03-29T00:27:16.923Z,101954.56
2023-03-29T00:29:43.955Z,101968.06
2023-03-29T00:32:11.037Z,101963.75
2023-03-29T00:34:38.369Z,101956.72
2023-03-29T00:37:08.793Z,101953.22
2023-03-29T00:39:37.086Z,101956.84
2023-03-29T00:42:04.244Z,101954.25
2023-03-29T00:44:57.537Z,101941.81
2023-03-29T00:47:39.696Z,101932.09
2023-03-29T00:50:26.395Z,101933.03
2023-03-29T00:53:05.178Z,101914.47
2023-03-29T00:55:57.684Z,101918.00
2023-03-29T00:58:30.730Z,101917.34
2023-03-29T01:01:08.893Z,101921.91
2023-03-29T01:03:46.768Z,101921.16
2023-03-29T01:06:18.134Z,101932.78
2023-03-29T01:08:54.599Z,101921.47
2023-03-29T01:11:30.671Z,101920.69
2023-03-29T01:14:07.103Z,101918.13
2023-03-29T01:16:38.471Z,101928.72
2023-03-29T01:19:09.572Z,101923.47
2023-03-29T01:21:44.556Z,101920.84
2023-03-29T01:24:45.479Z,101913.00
2023-03-29T01:27:55.503Z,101904.16
2023-03-29T01:30:46.728Z,101920.28
2023-03-29T01:33:25.433Z,101908.09
2023-03-29T01:36:12.205Z,101904.66
2023-03-29T01:38:48.891Z,101909.97
2023-03-29T01:41:16.600Z,101897.59
2023-03-29T01:44:12.655Z,101895.78
2023-03-29T01:46:52.639Z,101892.28
2023-03-29T01:49:29.410Z,101893.22
2023-03-29T01:52:06.997Z,101897.78
2023-03-29T01:55:25.032Z,101874.84
2023-03-29T01:57:55.702Z,101880.28
2023-03-29T02:00:27.786Z,101867.09
2023-03-29T02:03:04.558Z,101870.63
2023-03-29T02:05:32.597Z,101862.63
2023-03-29T02:08:01.558Z,101866.22
2023-03-29T02:10:29.399Z,101880.47
2023-03-29T02:12:56.677Z,101883.06
2023-03-29T02:15:23.704Z,101891.16
2023-03-29T02:17:51.508Z,101891.25
2023-03-29T02:20:25.919Z,101906.47
2023-03-29T02:23:10.026Z,101895.09
2023-03-29T02:25:38.004Z,101888.94
2023-03-29T02:28:06.911Z,101881.03
2023-03-29T02:30:46.464Z,101870.41
2023-03-29T02:33:27.765Z,101875.88
2023-03-29T02:36:01.991Z,101870.59
2023-03-29T02:38:31.382Z,101871.63
2023-03-29T02:41:00.563Z,101872.63
2023-03-29T02:43:29.730Z,101879.88
2023-03-29T02:45:57.076Z,101878.25
2023-03-29T02:48:27.414Z,101878.34
2023-03-29T02:50:58.811Z,101877.56
2023-03-29T02:53:34.068Z,101875.84
2023-03-29T02:56:02.331Z,101864.38
2023-03-29T02:58:29.728Z,101872.50
2023-03-29T03:01:00.912Z,101879.72
2023-03-29T03:03:29.305Z,101872.78
2023-03-29T03:05:58.629Z,101864.91
2023-03-29T03:08:26.249Z,101856.91
2023-03-29T03:10:54.217Z,101862.25
2023-03-29T03:13:21.376Z,101870.22
2023-03-29T03:15:49.360Z,101867.72
2023-03-29T03:18:16.810Z,101878.44
2023-03-29T03:20:46.657Z,101870.59
2023-03-29T03:23:13.928Z,101868.91
2023-03-29T03:25:40.911Z,101876.03
2023-03-29T03:28:08.040Z,101862.94
2023-03-29T03:30:35.096Z,101863.88
2023-03-29T03:33:02.159Z,101856.88
2023-03-29T03:36:10.360Z,101843.50
2023-03-29T03:38:38.997Z,101840.84
2023-03-29T03:41:07.301Z,101838.13
2023-03-29T03:43:35.732Z,101848.81
2023-03-29T03:46:02.995Z,101859.47
2023-03-29T03:48:30.693Z,101857.78
2023-03-29T03:51:16.232Z,101858.75
2023-03-29T03:53:43.870Z,101855.31
2023-03-29T03:56:14.145Z,101850.03
2023-03-29T03:58:59.806Z,101850.03
2023-03-29T04:01:28.414Z,101850.16
2023-03-29T04:04:12.631Z,101860.88
2023-03-29T04:06:44.196Z,101845.91
2023-03-29T04:09:35.662Z,101852.22
2023-03-29T04:12:27.884Z,101854.94
2023-03-29T04:14:55.537Z,101865.56
2023-03-29T04:17:24.209Z,101864.66
2023-03-29T04:19:51.299Z,101871.75
2023-03-29T04:22:18.572Z,101867.31
2023-03-29T04:24:45.869Z,101876.22
2023-03-29T04:27:39.491Z,101871.88
2023-03-29T04:30:15.370Z,101887.09
2023-03-29T04:33:02.403Z,101892.56
2023-03-29T04:35:30.456Z,101890.06
2023-03-29T04:37:57.649Z,101899.91
2023-03-29T04:40:25.053Z,101901.78
2023-03-29T04:43:02.767Z,101894.69
2023-03-29T04:45:30.591Z,101883.19
2023-03-29T04:48:12.297Z,101889.44
2023-03-29T04:50:47.089Z,101900.28
2023-03-29T04:53:15.612Z,101911.94
2023-03-29T04:55:47.353Z,101900.59
2023-03-29T04:58:22.558Z,101908.63
2023-03-29T05:00:51.658Z,101909.47
2023-03-29T05:03:27.116Z,101919.19
2023-03-29T05:06:09.087Z,101921.91
2023-03-29T05:08:40.373Z,101916.59
2023-03-29T05:11:21.906Z,101919.19
2023-03-29T05:13:49.065Z,101907.69
2023-03-29T05:16:16.164Z,101914.81
2023-03-29T05:18:44.024Z,101912.13
2023-03-29T05:21:12.302Z,101902.38
2023-03-29T05:23:43.393Z,101905.03
2023-03-29T05:26:30.679Z,101925.53
2023-03-29T05:28:58.173Z,101921.19
2023-03-29T05:31:26.602Z,101912.38
2023-03-29T05:33:55.475Z,101904.38
2023-03-29T05:36:23.443Z,101914.94
2023-03-29T05:38:51.473Z,101916.78
2023-03-29T05:41:21.124Z,101921.25
2023-03-29T05:43:48.653Z,101922.97
2023-03-29T05:46:16.514Z,101921.13
2023-03-29T05:48:50.770Z,101919.25
2023-03-29T05:51:24.466Z,101919.25
2023-03-29T05:53:55.223Z,101914.72
2023-03-29T05:56:22.909Z,101915.50
2023-03-29T05:58:51.369Z,101913.72
2023-03-29T06:01:19.403Z,101903.94
2023-03-29T06:04:03.589Z,101912.63
2023-03-29T06:06:39.389Z,101924.06
2023-03-29T06:09:06.964Z,101923.03
2023-03-29T06:11:40.923Z,101923.75
2023-03-29T06:14:32.719Z,101926.31
2023-03-29T06:17:16.345Z,101932.38
2023-03-29T06:19:44.506Z,101925.16
2023-03-29T06:22:14.750Z,101921.47
2023-03-29T06:24:42.194Z,101923.06
2023-03-29T06:27:17.741Z,101926.50
2023-03-29T06:29:45.652Z,101932.53
2023-03-29T06:32:12.755Z,101922.66
2023-03-29T06:34:47.318Z,101921.59
2023-03-29T06:37:42.789Z,101933.03
2023-03-29T06:40:24.981Z,101937.28
2023-03-29T06:42:58.016Z,101939.75
2023-03-29T06:45:30.943Z,101938.69
2023-03-29T06:48:00.537Z,101940.28
2023-03-29T06:50:28.073Z,101939.22
2023-03-29T06:53:10.860Z,101954.09
2023-03-29T06:55:40.116Z,101961.03
2023-03-29T06:58:26.239Z,101954.59
2023-03-29T07:01:02.760Z,101961.53
2023-03-29T07:03:46.690Z,101960.50
2023-03-29T07:06:16.620Z,101960.25
2023-03-29T07:08:44.966Z,101964.47
2023-03-29T07:11:21.323Z,101970.44
2023-03-29T07:13:55.548Z,101977.31
2023-03-29T07:16:23.709Z,101979.72
2023-03-29T07:18:51.257Z,101981.22
2023-03-29T07:21:41.452Z,101980.03
2023-03-29T07:24:10.289Z,101969.94
2023-03-29T07:26:38.198Z,101971.47
2023-03-29T07:29:06.438Z,101964.06
2023-03-29T07:31:35.914Z,101961.25
2023-03-29T07:34:22.916Z,101975.19
2023-03-29T07:36:50.091Z,101975.91
2023-03-29T07:39:17.681Z,101974.75
2023-03-29T07:41:59.993Z,101979.94
2023-03-29T07:44:29.688Z,101982.47
2023-03-29T07:47:00.129Z,101980.50
2023-03-29T07:49:27.846Z,101988.16
2023-03-29T07:51:55.104Z,101999.63
2023-03-29T07:54:23.544Z,101995.66
2023-03-29T07:57:01.415Z,101992.81
2023-03-29T07:59:32.958Z,101996.16
2023-03-29T08:02:22.746Z,101982.56
2023-03-29T08:04:54.518Z,101979.66
2023-03-29T08:07:30.942Z,101960.53
2023-03-29T08:10:30.452Z,101955.72
2023-03-29T08:13:19.743Z,101973.03
2023-03-29T08:16:15.890Z,101977.19
2023-03-29T08:18:50.662Z,101972.34
2023-03-29T08:21:19.100Z,101976.59
2023-03-29T08:23:49.196Z,101972.06
2023-03-29T08:26:29.904Z,101976.03
2023-03-29T08:28:59.411Z,101978.31
2023-03-29T08:31:28.293Z,101966.56
2023-03-29T08:33:55.663Z,101975.31
2023-03-29T08:36:50.810Z,101977.00
2023-03-29T08:39:27.101Z,101974.06
2023-03-29T08:42:34.664Z,101964.13
2023-03-29T08:45:54.513Z,101976.34
2023-03-29T08:48:33.957Z,101970.00
2023-03-29T08:51:19.806Z,101970.59
2023-03-29T08:53:53.111Z,101968.03
2023-03-29T08:56:51.461Z,101972.34
2023-03-29T08:59:29.374Z,101961.72
2023-03-29T09:01:59.761Z,101964.06
2023-03-29T09:04:32.044Z,101972.56
2023-03-29T09:07:26.610Z,101981.00
2023-03-29T09:09:55.995Z,101978.84
2023-03-29T09:12:56.031Z,101984.88
2023-03-29T09:15:31.202Z,101981.72
2023-03-29T09:18:30.537Z,101967.97
2023-03-29T09:21:30.350Z,101969.22
2023-03-29T09:24:07.720Z,101969.91
2023-03-29T09:26:49.494Z,101967.44
2023-03-29T09:30:06.214Z,101962.94
2023-03-29T09:33:08.329Z,101950.50
2023-03-29T09:36:22.607Z,101967.78
2023-03-29T09:38:54.439Z,101951.88
2023-03-29T09:41:41.281Z,101961.25
2023-03-29T09:44:30.272Z,101961.69
2023-03-29T09:47:28.127Z,101961.00
2023-03-29T09:50:23.433Z,101963.28
2023-03-29T09:52:57.096Z,101951.41
2023-03-29T09:55:30.384Z,101953.25
2023-03-29T09:58:23.345Z,101938.38
2023-03-29T10:00:53.816Z,101953.19
2023-03-29T10:03:33.693Z,101951.06
2023-03-29T10:06:14.617Z,101941.59
2023-03-29T10:08:52.779Z,101945.78
2023-03-29T10:11:28.959Z,101941.53
2023-03-29T10:14:04.062Z,101930.28
2023-03-29T10:16:41.947Z,101925.25
2023-03-29T10:19:36.824Z,101909.53
2023-03-29T10:22:16.459Z,101915.28
2023-03-29T10:24:50.102Z,101918.91
2023-03-29T10:27:26.207Z,101911.38
2023-03-29T10:29:55.853Z,101904.59
2023-03-29T10:32:23.078Z,101905.78
2023-03-29T10:34:52.101Z,101895.81
2023-03-29T10:37:21.306Z,101890.72
2023-03-29T10:39:49.376Z,101894.78
2023-03-29T10:42:19.945Z,101895.25
2023-03-29T10:44:56.623Z,101896.78
2023-03-29T10:47:27.739Z,101897.06
2023-03-29T10:49:59.055Z,101900.09
2023-03-29T10:52:27.179Z,101893.31
2023-03-29T10:54:56.828Z,101886.41
2023-03-29T10:57:38.693Z,101873.28
2023-03-29T11:00:37.784Z,101875.28
2023-03-29T11:04:04.770Z,101873.09
2023-03-29T11:07:07.276Z,101875.41
2023-03-29T11:09:57.493Z,101867.66
2023-03-29T11:12:48.739Z,101866.88
2023-03-29T11:15:42.276Z,101858.50
2023-03-29T11:18:46.296Z,101858.50
2023-03-29T11:21:30.360Z,101853.91
2023-03-29T11:24:18.452Z,101858.38
2023-03-29T11:27:37.190Z,101847.78
2023-03-29T11:30:20.554Z,101838.28
2023-03-29T11:33:07.306Z,101842.81
2023-03-29T11:35:40.241Z,101842.88
2023-03-29T11:38:19.302Z,101841.47
2023-03-29T11:41:14.766Z,101829.03
2023-03-29T11:43:51.450Z,101831.16
2023-03-29T11:46:38.004Z,101834.41
2023-03-29T11:49:17.079Z,101826.22
2023-03-29T11:52:06.394Z,101826.94
2023-03-29T11:54:44.894Z,101809.97
2023-03-29T11:57:27.487Z,101820.88
2023-03-29T12:00:06.144Z,101819.28
2023-03-29T12:02:52.074Z,101810.22
2023-03-29T12:05:24.283Z,101806.53
2023-03-29T12:08:17.831Z,101808.53
2023-03-29T12:11:03.967Z,101805.31
2023-03-29T12:13:38.017Z,101806.59
2023-03-29T12:16:52.735Z,101788.06
2023-03-29T12:19:28.667Z,101794.91
2023-03-29T12:21:58.357Z,101790.81
2023-03-29T12:24:30.663Z,101783.16
2023-03-29T12:27:26.025Z,101769.75
2023-03-29T12:30:21.626Z,101766.28
2023-03-29T12:32:51.766Z,101763.50
2023-03-29T12:36:20.735Z,101765.75
2023-03-29T12:39:19.824Z,101756.44
2023-03-29T12:42:17.869Z,101756.66
2023-03-29T12:45:04.084Z,101746.81
2023-03-29T12:47:43.259Z,101742.34
2023-03-29T12:50:37.595Z,101741.63
2023-03-29T12:53:23.274Z,101738.38
2023-03-29T12:55:56.114Z,101742.03
2023-03-29T12:58:49.041Z,101734.19
2023-03-29T13:01:30.079Z,101737.94
2023-03-29T13:04:01.617Z,101724.31
2023-03-29T13:07:02.845Z,101727.56
2023-03-29T13:09:37.852Z,101730.72
2023-03-29T13:12:31.431Z,101725.31
2023-03-29T13:15:04.588Z,101723.38
2023-03-29T13:18:29.145Z,101725.22
2023-03-29T13:21:09.567Z,101717.94
2023-03-29T13:24:16.634Z,101718.09
2023-03-29T13:27:48.115Z,101718.03
2023-03-29T13:30:49.275Z,101707.13
2023-03-29T13:33:41.449Z,101709.91
2023-03-29T13:36:32.928Z,101702.03
2023-03-29T13:39:05.515Z,101700.59
2023-03-29T13:41:38.565Z,101702.09
2023-03-29T13:44:29.702Z,101702.13
2023-03-29T13:47:19.080Z,101689.09
2023-03-29T13:49:58.165Z,101690.47
2023-03-29T13:52:39.254Z,101688.22
2023-03-29T13:55:21.090Z,101683.66
2023-03-29T13:58:32.156Z,101684.66
2023-03-29T14:01:26.155Z,101668.44
2023-03-29T14:03:53.588Z,101674.75
2023-03-29T14:06:32.703Z,101682.88
2023-03-29T14:09:06.396Z,101678.09
2023-03-29T14:11:34.235Z,101676.84
2023-03-29T14:14:05.309Z,101679.31
2023-03-29T14:16:38.624Z,101675.03
2023-03-29T14:19:14.771Z,101669.59
2023-03-29T14:21:43.361Z,101669.59
2023-03-29T14:24:21.998Z,101668.38
2023-03-29T14:26:49.337Z,101670.56
2023-03-29T14:29:18.344Z,101674.25
2023-03-29T14:31:45.877Z,101673.03
2023-03-29T14:34:18.512Z,101655.69
2023-03-29T14:36:54.077Z,101654.19
2023-03-29T14:39:23.427Z,101657.13
2023-03-29T14:41:54.339Z,101651.94
2023-03-29T14:44:26.136Z,101652.56
2023-03-29T14:46:55.748Z,101663.25
2023-03-29T14:49:23.836Z,101652.06
2023-03-29T14:51:52.368Z,101665.34
2023-03-29T14:54:29.361Z,101649.19
2023-03-29T14:56:56.890Z,101649.44
2023-03-29T14:59:37.055Z,101659.81
2023-03-29T15:02:07.370Z,101660.06
2023-03-29T15:04:39.535Z,101654.53
2023-03-29T15:07:08.390Z,101649.88
2023-03-29T15:09:36.062Z,101652.72
2023-03-29T15:12:03.706Z,101636.22
2023-03-29T15:14:37.019Z,101640.78
2023-03-29T15:17:17.035Z,101637.31
2023-03-29T15:19:44.561Z,101635.13
2023-03-29T15:22:11.871Z,101626.59
2023-03-29T15:24:47.464Z,101623.91
2023-03-29T15:27:19.836Z,101624.03
2023-03-29T15:29:47.944Z,101621.44
2023-03-29T15:32:37.217Z,101608.75
2023-03-29T15:35:09.357Z,101616.88
2023-03-29T15:37:36.861Z,101607.78
2023-03-29T15:40:09.678Z,101605.69
2023-03-29T15:42:37.432Z,101613.06
2023-03-29T15:45:06.551Z,101609.25
2023-03-29T15:47:34.271Z,101608.38
2023-03-29T15:50:02.363Z,101612.94
2023-03-29T15:52:29.808Z,101609.00
2023-03-29T15:54:56.887Z,101599.53
2023-03-29T15:57:24.221Z,101595.97
2023-03-29T15:59:51.477Z,101600.25
2023-03-29T16:02:24.315Z,101595.69
2023-03-29T16:04:53.655Z,101598.53
2023-03-29T16:07:21.386Z,101601.25
2023-03-29T16:09:48.691Z,101599.66
2023-03-29T16:12:16.432Z,101608.38
2023-03-29T16:14:43.553Z,101595.97
2023-03-29T16:17:10.941Z,101598.78
2023-03-29T16:19:37.942Z,101598.44
2023-03-29T16:22:07.325Z,101601.53
2023-03-29T16:24:35.609Z,101590.94
2023-03-29T16:27:03.997Z,101593.16
2023-03-29T16:29:31.948Z,101587.97
2023-03-29T16:31:59.204Z,101593.13
2023-03-29T16:34:26.843Z,101599.66
2023-03-29T16:36:54.235Z,101598.28
2023-03-29T16:39:21.566Z,101609.50
2023-03-29T16:41:50.274Z,101606.03
2023-03-29T16:44:24.417Z,101601.72
2023-03-29T16:46:54.239Z,101597.41
2023-03-29T16:49:22.247Z,101608.50
2023-03-29T16:51:50.162Z,101610.72
2023-03-29T16:54:17.644Z,101609.47
2023-03-29T16:56:45.178Z,101606.16
2023-03-29T16:59:12.870Z,101614.59
2023-03-29T17:01:41.013Z,101607.84
2023-03-29T17:04:09.293Z,101603.88
2023-03-29T17:06:36.994Z,101609.66
2023-03-29T17:09:05.259Z,101609.16
2023-03-29T17:11:33.095Z,101610.50
2023-03-29T17:14:00.420Z,101609.88
2023-03-29T17:16:29.211Z,101613.69
2023-03-29T17:19:00.649Z,101620.28
2023-03-29T17:21:29.322Z,101624.41
2023-03-29T17:23:56.440Z,101618.38
2023-03-29T17:26:23.599Z,101625.97
2023-03-29T17:28:50.849Z,101616.34
2023-03-29T17:31:19.423Z,101621.13
2023-03-29T17:33:47.580Z,101624.91
2023-03-29T17:36:15.003Z,101629.94
2023-03-29T17:38:42.942Z,101630.41
2023-03-29T17:41:10.272Z,101634.19
2023-03-29T17:43:37.409Z,101632.81
2023-03-29T17:46:05.022Z,101622.22
2023-03-29T17:48:32.995Z,101638.66
2023-03-29T17:51:00.584Z,101632.63
2023-03-29T17:53:27.874Z,101648.19
2023-03-29T17:55:55.485Z,101651.22
2023-03-29T17:58:22.788Z,101657.09
2023-03-29T18:00:50.570Z,101660.97
2023-03-29T18:03:17.767Z,101668.56
2023-03-29T18:05:48.791Z,101676.13
2023-03-29T18:08:16.912Z,101683.56
2023-03-29T18:10:44.361Z,101680.25
2023-03-29T18:13:13.995Z,101679.69
2023-03-29T18:15:42.160Z,101690.78
2023-03-29T18:18:09.161Z,101688.44
2023-03-29T18:20:36.190Z,101687.78
2023-03-29T18:23:03.501Z,101699.00
2023-03-29T18:25:30.449Z,101697.59
2023-03-29T18:27:57.563Z,101698.81
2023-03-29T18:30:24.582Z,101703.44
2023-03-29T18:32:51.689Z,101705.47
2023-03-29T18:35:18.677Z,101699.44
2023-03-29T18:37:45.703Z,101710.44
2023-03-29T18:40:13.109Z,101699.22
2023-03-29T18:42:40.071Z,101690.56
2023-03-29T18:45:09.387Z,101692.59
2023-03-29T18:47:36.348Z,101697.47
2023-03-29T18:50:04.177Z,101705.75
2023-03-29T18:52:31.276Z,101714.28
2023-03-29T18:54:58.422Z,101712.72
2023-03-29T18:57:25.449Z,101725.66
2023-03-29T18:59:52.640Z,101725.09
2023-03-29T19:02:19.759Z,101730.91
2023-03-29T19:04:46.835Z,101728.53
2023-03-29T19:07:13.939Z,101737.78
2023-03-29T19:09:41.774Z,101739.91
2023-03-29T19:12:09.049Z,101740.19
2023-03-29T19:14:36.076Z,101736.84
2023-03-29T19:17:03.192Z,101736.25
2023-03-29T19:19:30.151Z,101743.56
2023-03-29T19:22:00.383Z,101741.09
2023-03-29T19:24:28.140Z,101745.72
2023-03-29T19:26:57.504Z,101750.31
2023-03-29T19:29:26.067Z,101754.06
2023-03-29T19:31:54.600Z,101747.81
2023-03-29T19:34:24.046Z,101752.47
2023-03-29T19:36:53.956Z,101749.97
2023-03-29T19:39:21.988Z,101753.59
2023-03-29T19:41:49.129Z,101748.44
2023-03-29T19:44:16.180Z,101753.91
2023-03-29T19:46:43.439Z,101754.22
2023-03-29T19:49:13.563Z,101759.59
2023-03-29T19:51:42.145Z,101764.34
2023-03-29T19:54:12.155Z,101771.63
2023-03-29T19:56:40.818Z,101765.47
2023-03-29T19:59:11.055Z,101764.91
2023-03-29T20:01:39.221Z,101764.13
2023-03-29T20:04:06.580Z,101762.50
2023-03-29T20:06:38.562Z,101765.38
2023-03-29T20:09:07.031Z,101770.00
2023-03-29T20:11:34.083Z,101779.91
2023-03-29T20:14:01.276Z,101785.50
2023-03-29T20:16:29.919Z,101787.28
2023-03-29T20:18:57.134Z,101784.81
2023-03-29T20:21:24.168Z,101790.41
2023-03-29T20:23:51.318Z,101788.63
2023-03-29T20:26:18.298Z,101793.16
2023-03-29T20:28:45.825Z,101786.91
2023-03-29T20:31:13.297Z,101792.19
2023-03-29T20:33:41.569Z,101791.34
2023-03-29T20:36:09.187Z,101793.16
2023-03-29T20:38:36.533Z,101798.53
2023-03-29T20:41:05.876Z,101794.88
2023-03-29T20:43:40.955Z,101796.63
2023-03-29T20:46:14.690Z,101781.44
2023-03-29T20:48:54.298Z,101779.81
2023-03-29T20:51:28.141Z,101780.75
2023-03-29T20:54:02.283Z,101777.19
2023-03-29T20:56:31.439Z,101787.97
2023-03-29T20:58:59.084Z,101777.31
2023-03-29T21:01:29.615Z,101781.06
2023-03-29T21:03:57.119Z,101779.53
2023-03-29T21:06:24.731Z,101798.53
2023-03-29T21:08:52.633Z,101789.78
2023-03-29T21:11:21.019Z,101788.03
2023-03-29T21:13:48.298Z,101798.06
2023-03-29T21:16:15.781Z,101797.28
2023-03-29T21:18:43.606Z,101799.19
2023-03-29T21:21:12.650Z,101808.31
2023-03-29T21:23:39.983Z,101795.91
2023-03-29T21:26:07.964Z,101795.38
2023-03-29T21:28:35.855Z,101791.25
2023-03-29T21:31:07.505Z,101796.81
2023-03-29T21:33:36.614Z,101800.63
2023-03-29T21:36:04.390Z,101802.53
2023-03-29T21:38:31.803Z,101804.47
2023-03-29T21:41:00.667Z,101798.31
2023-03-29T21:43:28.220Z,101795.81
2023-03-29T21:45:57.670Z,101802.22
2023-03-29T21:48:24.921Z,101806.75
2023-03-29T21:50:52.117Z,101792.69
2023-03-29T21:53:19.348Z,101792.91
2023-03-29T21:55:49.757Z,101795.66
2023-03-29T21:58:17.755Z,101796.69
2023-03-29T22:00:46.727Z,101795.16
2023-03-29T22:03:15.044Z,101800.53
2023-03-29T22:05:42.417Z,101799.75
2023-03-29T22:08:12.283Z,101796.38
2023-03-29T22:10:41.469Z,101801.91
2023-03-29T22:13:09.258Z,101806.72
2023-03-29T22:15:36.427Z,101808.78
2023-03-29T22:18:04.235Z,101803.69
2023-03-29T22:20:35.586Z,101797.69
2023-03-29T22:23:03.301Z,101795.38
2023-03-29T22:25:30.544Z,101791.06
2023-03-29T22:27:57.775Z,101798.22
2023-03-29T22:30:24.755Z,101792.94
2023-03-29T22:32:51.862Z,101796.66
2023-03-29T22:35:18.888Z,101815.81
2023-03-29T22:37:46.018Z,101806.22
2023-03-29T22:40:13.917Z,101801.81
2023-03-29T22:42:41.191Z,101808.19
2023-03-29T22:45:09.587Z,101796.78
2023-03-29T22:47:36.656Z,101807.69
2023-03-29T22:50:04.920Z,101810.44
2023-03-29T22:52:32.162Z,101816.88
2023-03-29T22:54:59.205Z,101812.53
2023-03-29T22:57:27.163Z,101808.19
2023-03-29T22:59:54.728Z,101814.56
2023-03-29T23:02:21.894Z,101803.06
2023-03-29T23:04:48.964Z,101809.34
2023-03-29T23:07:16.214Z,101805.03
2023-03-29T23:09:43.234Z,101805.91
2023-03-29T23:12:10.232Z,101799.66
2023-03-29T23:14:37.720Z,101799.66
2023-03-29T23:17:04.843Z,101807.78
2023-03-29T23:19:31.931Z,101809.78
2023-03-29T23:21:59.024Z,101815.31
2023-03-29T23:24:26.008Z,101813.59
2023-03-29T23:26:53.249Z,101815.47
2023-03-29T23:29:20.184Z,101815.66
2023-03-29T23:31:47.657Z,101813.91
2023-03-29T23:34:14.951Z,101819.34
2023-03-29T23:36:42.058Z,101818.50
2023-03-29T23:39:09.953Z,101822.22
2023-03-29T23:41:40.113Z,101823.25
2023-03-29T23:44:07.914Z,101821.59
2023-03-29T23:46:35.153Z,101828.78
2023-03-29T23:49:02.275Z,101825.22
2023-03-29T23:51:29.379Z,101811.91
2023-03-29T23:53:57.023Z,101814.59
2023-03-29T23:56:24.322Z,101808.41
2023-03-29T23:58:51.781Z,101807.66
